Wetterstation Rottenburg Seebronn / 442m msl / http://mut-lambrecht.de
LETZTE AKTUALISIERUNG UM: 21:10 DATUM: Mai 24 2024, time of next update: 21:15
Aktuelles WetterClear Aktuelle Temperatur 13.1°C (55.6°F), Apparent temp 13.4°C
Höchsttemperatur (seit Mitternacht)19.6°C um: 16:35 Tiefsttemperatur (seit Mitternacht)11.3°C um: 03:35
Windgeschwindigkeit (10 Minuten )0.0 kmh (0.0 kts) Windrichtung (Dir) (10 Minuten )SSE (158°)
Windchill Temperatur 13.1°C Windspitzen (letzte Std)13.0 kmh (7.0 kts) um: 20:17
Windspitzen (seit Mitternacht)31.5 kmh (17.0 kts) um: 17:13 Höchstes Windmittel / Minute (seit Mitternacht)18.6 kmh (10.1 kts) um: 17:19
Regenmenge (letzte Std)0.0 mm Regenmenge (seit Mitternacht)7.1 mm (0.28 in.) at 18:41
Regenmenge diesen Monat 121.0 mm (4.76 in.) Regenmenge seit Jahresbeginn 311.1 mm (12.25 in.)
Höchste Regenmenge pro Minute (letzte Std)0.0 mm/min Höchste Regenmenge pro Stunde (letzte 6 Std)0.0 mm/stunde
Regenmenge Gestern 11.2 mm Taupunkt 10.3°C (Wet Bulb :11.6°C )
Luftfeuchtigkeit 83 %, Humidex 14.5°C Aktueller Luftdruck (auf Meereshöhe bezogen)1017.3 hPa
Luftdrucktendenz -0.5 hPa (letzte Std) Trend (letzte 1 Std)gleichbleibend
Luftdrucktendenz (letzte 12 Std)-0.6 hPa Luftdrucktendenz (letzte 6 Std)-0.8 hPa



Weather report/warning/Metars

Stuttgart-Echterdingen, Germany (EDDS) 48-41N 009-13E 391M
May 24, 2024 - 02:50 PM EDT / 2024.05.24 1850 UTC
Wind: Variable at 1 MPH (1 KT):0
Visibility: greater than 7 mile(s):0
Temperature: 57 F (14 C)
Dew Point: 51 F (11 C)
Relative Humidity: 82%
Pressure (altimeter): 30.03 in. Hg (1017 hPa)
ob: EDDS 241850Z AUTO VRB01KT CAVOK 14/11 Q1017 NOSIG
cycle: 19
Karlsruhe, Baden Wurttemberg, Germany (EDSB) 48-46-43N 008-04-47E
May 24, 2024 - 02:50 PM EDT / 2024.05.24 1850 UTC
Wind: from the SW (230 degrees) at 6 MPH (5 KT):0
Visibility: greater than 7 mile(s):0
Temperature: 59 F (15 C)
Dew Point: 53 F (12 C)
Relative Humidity: 82%
Pressure (altimeter): 30.03 in. Hg (1017 hPa)
ob: EDSB 241850Z 23005KT CAVOK 15/12 Q1017
cycle: 19
Lahr, CAN-AFB, Germany (EDTL) 48-22-09N 007-49-40E
May 24, 2024 - 02:50 PM EDT / 2024.05.24 1850 UTC
Wind: from the SSW (200 degrees) at 5 MPH (4 KT) (direction variable):0
Visibility: greater than 7 mile(s):0
Sky conditions: mostly clear
Temperature: 55 F (13 C)
Dew Point: 53 F (12 C)
Relative Humidity: 93%
Pressure (altimeter): 30.03 in. Hg (1017 hPa)
ob: EDTL 241850Z AUTO 20004KT 160V230 9999 // FEW088/// 13/12 Q1017
cycle: 19
Laupheim, Germany (ETHL) 48-13N 009-55E 550M
May 24, 2024 - 02:20 PM EDT / 2024.05.24 1820 UTC
Wind: from the W (280 degrees) at 10 MPH (9 KT):0
Visibility: 5 mile(s):0
Temperature: 51 F (11 C)
Dew Point: 48 F (9 C)
Relative Humidity: 87%
Pressure (altimeter): 30.03 in. Hg (1017 hPa)
ob: ETHL 241820Z AUTO 28009KT 9000 // ////// 11/09 Q1017 ///
cycle: 18


Klicken Sie hier, um zu den Durchschnitts-, Extrem-, Monats- oder Tageswerten zu gelangen


Die Wetterdaten werden alle 5 Minuten aktualisiert.
Die 3 stündige Echtzeitgrafik wird jede Minute aktualisiert.
Bei der 3 stündige Echtzeitgrafik sind derzeit die Skalenfarben von Winddurchschnitt u. Windböen vertauscht. (Softwarebug)

Drücken Sie gegebenenfalls auf "Aktualisieren" in Ihrem Browser, um die aktuellsten Daten zu erhalten.